Time;durP1;ratioP1;P1;durP2;ratioP2;P2;SDS_P1;SDS_P2;PMS_P1;PMS_P2;Temp;Humidity;BMP_temperature;BMP_pressure;BME280_temperature;BME280_humidity;BME280_pressure;Samples;Min_cycle;Max_cycle;Signal;HPM_P1;HPM_P2
2021/11/04 00:00:28;;;;;;;24.40;20.72;;;;;;;16.37;60.28;102005.52;1736023;82;21609;-56
2021/11/04 00:02:56;;;;;;;23.35;20.88;;;;;;;16.36;60.22;102006.00;1730345;82;21047;-55
2021/11/04 00:05:24;;;;;;;20.62;18.42;;;;;;;16.36;60.23;102011.25;1728134;82;21050;-52
2021/11/04 00:07:52;;;;;;;13.53;12.23;;;;;;;16.35;60.21;102000.76;1729316;82;21018;-53
2021/11/04 00:10:20;;;;;;;16.67;15.08;;;;;;;16.34;59.76;101999.05;1728613;82;21039;-58
2021/11/04 00:12:48;;;;;;;15.18;13.68;;;;;;;16.32;59.59;101994.29;1730881;82;21035;-52
2021/11/04 00:15:16;;;;;;;15.50;14.00;;;;;;;16.29;59.63;101994.78;1730280;82;21019;-55
2021/11/04 00:17:44;;;;;;;15.72;14.00;;;;;;;16.25;59.50;101990.51;1723211;82;21038;-54
2021/11/04 00:20:12;;;;;;;16.45;14.68;;;;;;;16.24;59.44;101992.70;1727427;82;21011;-56
2021/11/04 00:22:38;;;;;;;18.10;16.20;;;;;;;16.22;59.43;101989.70;1727455;82;21069;-53
2021/11/04 00:25:06;;;;;;;15.80;13.65;;;;;;;16.20;59.37;101992.37;1729736;82;21038;-52
2021/11/04 00:27:33;;;;;;;15.08;13.55;;;;;;;16.17;59.22;101992.47;1730512;82;21492;-59
2021/11/04 00:29:59;;;;;;;15.78;14.28;;;;;;;16.14;59.19;101992.97;1729896;82;21495;-55
2021/11/04 00:32:26;;;;;;;14.43;13.03;;;;;;;16.12;59.25;101992.15;1728023;82;21503;-56
2021/11/04 00:34:52;;;;;;;16.02;13.55;;;;;;;16.11;59.53;101995.69;1726386;82;21543;-56
2021/11/04 00:37:19;;;;;;;15.65;14.25;;;;;;;16.10;59.73;101990.88;1726358;82;21514;-56
2021/11/04 00:39:45;;;;;;;16.45;14.85;;;;;;;16.10;59.73;101985.63;1732804;82;20959;-52
2021/11/04 00:42:12;;;;;;;18.60;16.70;;;;;;;16.09;59.70;101985.68;1729171;82;21007;-52
2021/11/04 00:44:38;;;;;;;19.62;15.40;;;;;;;16.08;59.66;101997.94;1727839;82;21002;-52
2021/11/04 00:47:05;;;;;;;17.15;15.55;;;;;;;16.07;59.51;101997.98;1726743;82;21015;-52
2021/11/04 00:49:31;;;;;;;16.10;14.58;;;;;;;16.05;59.43;102001.94;1727320;82;21542;-56
2021/11/04 00:51:58;;;;;;;16.50;14.93;;;;;;;16.03;59.40;101994.55;1723450;82;21464;-57
2021/11/04 00:54:24;;;;;;;19.05;17.20;;;;;;;16.02;59.43;101991.53;1729038;82;21026;-56
2021/11/04 00:56:50;;;;;;;18.92;17.12;;;;;;;16.01;59.37;101992.89;1727492;82;20999;-57
2021/11/04 00:59:17;;;;;;;18.95;17.05;;;;;;;15.97;59.36;101985.52;1727531;82;21098;-55
2021/11/04 01:01:44;;;;;;;20.35;18.25;;;;;;;15.95;59.41;101983.38;1727270;82;21153;-55
2021/11/04 01:04:12;;;;;;;19.10;17.07;;;;;;;15.94;59.41;101994.80;1727149;82;21034;-53
2021/11/04 01:06:40;;;;;;;21.35;19.23;;;;;;;15.92;59.49;101987.41;1727420;82;21035;-53
2021/11/04 01:09:06;;;;;;;21.87;19.60;;;;;;;15.91;59.51;101981.73;1728675;82;20994;-55
2021/11/04 01:11:34;;;;;;;21.80;19.60;;;;;;;15.90;59.63;101990.95;1729368;82;21043;-53
2021/11/04 01:14:00;;;;;;;22.15;19.85;;;;;;;15.88;59.75;101988.38;1710102;82;21093;-55
2021/11/04 01:16:28;;;;;;;19.23;17.35;;;;;;;15.88;59.92;101983.13;1730497;82;20995;-56
2021/11/04 01:18:54;;;;;;;20.27;18.35;;;;;;;15.89;60.20;101985.31;1728584;82;21015;-53
2021/11/04 01:21:21;;;;;;;21.02;18.92;;;;;;;15.90;60.52;101987.89;1727481;82;21098;-59
2021/11/04 01:23:47;;;;;;;23.32;20.82;;;;;;;15.92;60.83;101996.59;1726997;82;20991;-56
2021/11/04 01:26:14;;;;;;;24.12;21.62;;;;;;;15.97;61.11;101999.11;1727284;82;21076;-55
2021/11/04 01:28:41;;;;;;;24.18;21.52;;;;;;;16.00;61.39;102002.52;1727237;82;21031;-56
2021/11/04 01:31:08;;;;;;;22.70;20.30;;;;;;;16.04;61.61;102004.61;1729963;82;20986;-56
2021/11/04 01:33:35;;;;;;;27.25;22.65;;;;;;;16.08;61.93;102005.81;1730429;82;21086;-56
2021/11/04 01:36:01;;;;;;;25.00;21.07;;;;;;;16.11;62.29;102001.81;1729669;82;21058;-58
2021/11/04 01:38:28;;;;;;;24.32;20.80;;;;;;;16.16;62.50;102002.98;1727657;82;21077;-58
2021/11/04 01:40:54;;;;;;;25.72;22.75;;;;;;;16.21;62.68;101999.37;1729705;82;21057;-53
2021/11/04 01:43:21;;;;;;;25.52;22.15;;;;;;;16.27;62.88;101994.41;1730609;82;21011;-55
2021/11/04 01:45:49;;;;;;;27.40;23.50;;;;;;;16.30;62.95;101990.36;1730534;82;21010;-53
2021/11/04 01:48:16;;;;;;;27.35;23.70;;;;;;;16.34;63.18;101985.92;1728815;82;21478;-55
2021/11/04 01:50:44;;;;;;;27.00;24.10;;;;;;;16.40;63.33;101981.81;1715350;82;21090;-56
2021/11/04 01:53:11;;;;;;;29.57;25.97;;;;;;;16.44;63.57;101981.70;1729467;82;21086;-58
2021/11/04 01:55:37;;;;;;;29.80;26.27;;;;;;;16.45;63.85;101982.09;1730379;82;21067;-53
2021/11/04 01:58:04;;;;;;;29.25;26.05;;;;;;;16.52;63.80;101981.52;1730344;82;21027;-57
2021/11/04 02:00:31;;;;;;;32.98;26.82;;;;;;;16.55;63.77;101982.77;1728425;82;21034;-54
2021/11/04 02:03:31;;;;;;;29.98;26.77;;;;;;;16.57;63.73;101987.53;1723643;82;21073;-53
2021/11/04 02:06:20;;;;;;;33.65;27.50;;;;;;;16.60;63.79;101987.42;1683614;85;20984;-56
2021/11/04 02:09:10;;;;;;;32.85;27.58;;;;;;;16.62;63.89;101997.45;1673490;85;21069;-53
2021/11/04 02:11:54;;;;;;;30.32;27.02;;;;;;;16.60;64.20;101990.92;1680013;85;21025;-56
2021/11/04 02:14:32;;;;;;;33.30;28.23;;;;;;;16.63;64.38;101984.73;1592837;89;21122;-53
2021/11/04 02:16:59;;;;;;;33.78;28.70;;;;;;;16.69;64.53;101979.31;1589819;89;21034;-54
2021/11/04 02:19:47;;;;;;;37.05;29.05;;;;;;;16.72;64.57;101981.83;1591794;89;21522;-55
2021/11/04 02:22:35;;;;;;;34.53;29.12;;;;;;;16.75;64.57;101976.06;1593672;89;21038;-59
2021/11/04 02:25:21;;;;;;;36.73;30.45;;;;;;;16.79;64.60;101978.14;1592553;89;21070;-57
2021/11/04 02:27:51;;;;;;;37.08;30.52;;;;;;;16.82;64.68;101991.19;1587600;89;21763;-57
2021/11/04 02:30:22;;;;;;;34.40;28.70;;;;;;;16.83;64.66;101998.19;1594385;89;21086;-54
2021/11/04 02:32:50;;;;;;;34.58;29.37;;;;;;;16.82;64.71;102009.59;1594075;89;21052;-57
2021/11/04 02:35:16;;;;;;;33.83;28.57;;;;;;;16.84;64.72;102013.03;1593066;89;21175;-56
2021/11/04 02:37:44;;;;;;;33.73;29.18;;;;;;;16.88;64.75;102017.30;1593547;89;21088;-57
2021/11/04 02:40:11;;;;;;;32.45;28.25;;;;;;;16.91;64.81;102019.86;1593533;89;21616;-54
2021/11/04 02:42:39;;;;;;;31.93;28.17;;;;;;;16.94;64.79;102025.02;1655108;86;20984;-57
2021/11/04 02:45:08;;;;;;;30.32;27.07;;;;;;;16.96;64.83;102025.39;1638496;86;21074;-56
2021/11/04 02:47:37;;;;;;;32.05;27.75;;;;;;;16.97;64.79;102022.31;1660804;86;21016;-54
2021/11/04 02:50:05;;;;;;;31.23;26.40;;;;;;;16.99;64.82;102022.69;1660731;86;21583;-56
2021/11/04 02:52:32;;;;;;;29.50;25.50;;;;;;;17.01;64.87;102023.95;1660832;86;21012;-53
2021/11/04 02:55:04;;;;;;;29.95;25.88;;;;;;;17.04;64.89;102023.88;1660673;86;21506;-57
2021/11/04 02:57:32;;;;;;;28.77;25.17;;;;;;;17.04;64.87;102023.41;1660904;86;21527;-58
2021/11/04 02:59:59;;;;;;;27.85;24.75;;;;;;;17.06;64.85;102019.44;1660478;86;21034;-59
2021/11/04 03:02:25;;;;;;;28.70;25.60;;;;;;;17.04;64.92;102022.09;1660643;86;21072;-54
2021/11/04 03:04:52;;;;;;;30.25;26.60;;;;;;;17.05;64.83;102023.83;1660173;86;21087;-54
2021/11/04 03:07:18;;;;;;;28.98;25.52;;;;;;;17.07;64.69;102022.47;1660645;86;21568;-57
2021/11/04 03:09:45;;;;;;;29.30;26.17;;;;;;;17.07;64.76;102031.22;1687427;82;21613;-58
2021/11/04 03:12:11;;;;;;;27.42;24.60;;;;;;;17.08;64.71;102038.67;1729536;82;21533;-58
2021/11/04 03:14:40;;;;;;;26.07;23.47;;;;;;;17.07;64.78;102032.54;1730386;82;21043;-60
2021/11/04 03:17:07;;;;;;;28.50;25.48;;;;;;;17.09;64.80;102025.47;1714103;82;21039;-54
2021/11/04 03:19:33;;;;;;;28.67;24.70;;;;;;;17.09;64.97;102025.91;1729580;82;20983;-56
2021/11/04 03:22:00;;;;;;;27.58;23.75;;;;;;;17.09;64.85;102035.11;1730293;82;21079;-55
2021/11/04 03:24:27;;;;;;;27.02;24.12;;;;;;;17.09;64.86;102036.43;1686994;82;21460;-54
2021/11/04 03:27:03;;;;;;;26.37;23.38;;;;;;;17.12;64.84;102034.17;1733699;82;21039;-57
2021/11/04 03:29:33;;;;;;;26.73;23.55;;;;;;;17.13;64.91;102031.49;1727775;82;21011;-57
2021/11/04 03:32:14;;;;;;;25.47;22.70;;;;;;;17.16;64.58;102036.68;1727367;82;20972;-54
2021/11/04 03:34:40;;;;;;;25.82;22.82;;;;;;;17.16;64.58;102036.68;1721689;82;21917;-60
2021/11/04 03:37:07;;;;;;;26.40;22.65;;;;;;;17.17;64.85;102042.33;1683094;84;21026;-54
2021/11/04 03:39:33;;;;;;;26.12;22.75;;;;;;;17.18;64.74;102044.08;1714536;82;21030;-54
2021/11/04 03:42:00;;;;;;;24.57;21.97;;;;;;;17.18;64.74;102043.20;1725757;82;21042;-55
2021/11/04 03:44:26;;;;;;;26.12;22.30;;;;;;;17.20;64.72;102042.26;1730447;82;21030;-54
2021/11/04 03:46:53;;;;;;;25.08;22.37;;;;;;;17.23;64.79;102049.20;1730464;82;20995;-58
2021/11/04 03:49:21;;;;;;;25.85;22.98;;;;;;;17.24;64.81;102066.25;1728830;82;21094;-59
2021/11/04 03:51:50;;;;;;;25.37;22.17;;;;;;;17.27;64.86;102067.47;1728128;82;21553;-54
2021/11/04 03:54:21;;;;;;;23.18;20.70;;;;;;;17.28;64.79;102059.12;1726497;82;21039;-57
2021/11/04 03:56:47;;;;;;;24.65;22.05;;;;;;;17.30;64.73;102055.55;1726133;82;21487;-54
2021/11/04 03:59:14;;;;;;;28.50;21.65;;;;;;;17.30;64.64;102047.66;1733956;82;21009;-54
2021/11/04 04:01:40;;;;;;;23.87;20.90;;;;;;;17.29;64.52;102058.23;1730231;82;21566;-57
2021/11/04 04:04:08;;;;;;;26.23;22.65;;;;;;;17.26;64.46;102060.50;1735269;82;21518;-54
2021/11/04 04:06:35;;;;;;;25.15;21.37;;;;;;;17.25;64.46;102064.02;1735913;82;21570;-57
2021/11/04 04:09:05;;;;;;;25.08;22.13;;;;;;;17.24;64.50;102071.52;1732068;82;21019;-59
2021/11/04 04:11:32;;;;;;;26.45;22.52;;;;;;;17.25;64.55;102075.85;1719915;82;21007;-56
2021/11/04 04:14:00;;;;;;;24.57;22.07;;;;;;;17.25;64.50;102089.01;1737570;82;21034;-59
2021/11/04 04:16:27;;;;;;;24.72;21.60;;;;;;;17.27;64.40;102090.30;1744046;82;21066;-57
2021/11/04 04:18:53;;;;;;;26.40;23.52;;;;;;;17.27;64.41;102080.62;1734467;82;21023;-60
2021/11/04 04:21:20;;;;;;;26.40;23.47;;;;;;;17.27;64.27;102084.56;1738638;82;21031;-57
2021/11/04 04:23:47;;;;;;;27.48;24.50;;;;;;;17.26;64.23;102086.80;1738400;82;20999;-56
2021/11/04 04:26:13;;;;;;;25.92;23.22;;;;;;;17.26;64.16;102084.17;1736356;82;21007;-55
2021/11/04 04:28:40;;;;;;;28.57;25.57;;;;;;;17.27;64.14;102087.20;1735650;82;21014;-57
2021/11/04 04:31:07;;;;;;;28.32;25.30;;;;;;;17.27;64.11;102079.30;1735290;82;21014;-54
2021/11/04 04:33:34;;;;;;;28.07;25.08;;;;;;;17.27;64.07;102081.09;1735306;82;20998;-53
2021/11/04 04:36:03;;;;;;;27.93;24.57;;;;;;;17.27;64.03;102074.05;1735910;82;21006;-54
2021/11/04 04:38:30;;;;;;;27.40;24.60;;;;;;;17.26;64.04;102077.59;1737628;82;21042;-58
2021/11/04 04:40:56;;;;;;;26.05;23.35;;;;;;;17.24;64.03;102068.89;1738599;82;21046;-56
2021/11/04 04:43:22;;;;;;;25.35;22.75;;;;;;;17.23;64.04;102072.41;1734730;82;20967;-59
2021/11/04 04:45:51;;;;;;;26.30;23.47;;;;;;;17.22;64.09;102068.52;1727045;82;21038;-56
2021/11/04 04:48:19;;;;;;;27.70;24.70;;;;;;;17.21;64.08;102074.22;1742114;82;21010;-55
2021/11/04 04:50:45;;;;;;;29.50;23.55;;;;;;;17.21;64.17;102074.22;1735678;82;20978;-58
2021/11/04 04:53:12;;;;;;;25.68;23.07;;;;;;;17.19;64.26;102065.51;1735612;82;20987;-61
2021/11/04 04:55:38;;;;;;;26.77;23.80;;;;;;;17.19;64.32;102070.77;1735237;82;21070;-58
2021/11/04 04:58:06;;;;;;;26.17;22.73;;;;;;;17.20;64.32;102065.94;1735338;82;21074;-59
2021/11/04 05:00:34;;;;;;;25.02;22.32;;;;;;;17.20;64.22;102075.14;1736733;82;20954;-58
2021/11/04 05:03:01;;;;;;;24.02;21.27;;;;;;;17.21;64.25;102077.33;1738095;82;21054;-57
2021/11/04 05:05:27;;;;;;;24.70;21.97;;;;;;;17.20;64.31;102082.16;1735648;82;21511;-58
2021/11/04 05:07:54;;;;;;;25.57;22.77;;;;;;;17.19;64.37;102081.30;1737183;82;20987;-57
2021/11/04 05:10:22;;;;;;;24.90;22.15;;;;;;;17.21;64.43;102076.84;1737805;82;21030;-61
2021/11/04 05:12:49;;;;;;;23.05;20.75;;;;;;;17.23;64.38;102082.93;1723754;82;21046;-53
2021/11/04 05:15:16;;;;;;;23.73;21.23;;;;;;;17.24;64.34;102085.11;1735232;82;21662;-57
2021/11/04 05:17:43;;;;;;;23.15;20.72;;;;;;;17.24;64.42;102083.36;1738312;82;21078;-54
2021/11/04 05:20:10;;;;;;;23.30;20.80;;;;;;;17.26;64.46;102084.17;1725409;82;21075;-57
2021/11/04 05:22:37;;;;;;;26.40;21.33;;;;;;;17.28;64.52;102090.70;1736170;82;21744;-54
2021/11/04 05:25:05;;;;;;;27.87;21.42;;;;;;;17.28;64.53;102094.20;1737172;82;21482;-54
2021/11/04 05:27:32;;;;;;;24.20;21.25;;;;;;;17.29;64.63;102103.80;1737444;82;21050;-55
2021/11/04 05:29:58;;;;;;;23.75;20.62;;;;;;;17.29;64.58;102104.28;1738675;82;20983;-58
2021/11/04 05:32:25;;;;;;;24.45;20.88;;;;;;;17.30;64.61;102117.83;1738611;82;20998;-57
2021/11/04 05:34:52;;;;;;;27.65;22.20;;;;;;;17.29;64.85;102132.73;1735857;82;21514;-54
2021/11/04 05:37:19;;;;;;;25.25;21.87;;;;;;;17.31;64.99;102125.66;1735717;82;21490;-54
2021/11/04 05:39:45;;;;;;;24.05;21.60;;;;;;;17.35;65.06;102131.73;1735707;82;21451;-54
2021/11/04 05:42:12;;;;;;;23.85;21.35;;;;;;;17.39;65.17;102134.23;1735450;81;21632;-57
2021/11/04 05:44:39;;;;;;;23.83;21.23;;;;;;;17.45;65.25;102130.12;1735745;81;21075;-63
2021/11/04 05:47:06;;;;;;;24.52;21.60;;;;;;;17.51;65.55;102135.23;1731881;82;20995;-55
2021/11/04 05:49:33;;;;;;;25.62;21.27;;;;;;;17.59;65.94;102143.77;1738452;82;21082;-55
2021/11/04 05:52:00;;;;;;;22.27;19.73;;;;;;;17.69;66.22;102150.49;1737468;82;21503;-54
2021/11/04 05:54:28;;;;;;;22.27;19.85;;;;;;;17.79;66.21;102155.89;1736236;82;21030;-55
2021/11/04 05:56:55;;;;;;;22.27;19.25;;;;;;;17.89;66.07;102167.88;1737872;82;21018;-55
2021/11/04 05:59:21;;;;;;;23.77;19.80;;;;;;;17.98;65.86;102171.14;1738421;82;21011;-62
2021/11/04 06:01:47;;;;;;;22.07;18.82;;;;;;;18.04;65.60;102165.25;1738427;82;21047;-55
2021/11/04 06:04:14;;;;;;;20.57;18.17;;;;;;;18.10;65.39;102160.23;1736325;82;21526;-58
2021/11/04 06:06:41;;;;;;;21.57;16.85;;;;;;;18.15;65.12;102157.02;1735178;82;21034;-61
2021/11/04 06:09:08;;;;;;;18.57;16.57;;;;;;;18.20;64.95;102148.50;1735272;82;21050;-59
2021/11/04 06:11:36;;;;;;;18.45;16.55;;;;;;;18.22;64.82;102150.63;1735257;82;21081;-57
2021/11/04 06:14:02;;;;;;;20.88;16.07;;;;;;;18.28;64.86;102145.20;1735533;82;21050;-55
2021/11/04 06:16:30;;;;;;;18.60;15.40;;;;;;;18.34;64.86;102138.42;1737256;82;21070;-56
2021/11/04 06:18:57;;;;;;;16.70;14.90;;;;;;;18.39;64.60;102128.57;1734427;82;21537;-58
2021/11/04 06:21:24;;;;;;;18.90;15.48;;;;;;;18.44;64.42;102126.22;1738473;82;21510;-55
2021/11/04 06:23:50;;;;;;;15.80;14.20;;;;;;;18.46;64.17;102109.06;1738714;82;21522;-58
2021/11/04 06:26:18;;;;;;;17.12;14.40;;;;;;;18.50;64.19;102110.68;1737092;82;21042;-54
2021/11/04 06:28:45;;;;;;;17.42;15.40;;;;;;;18.56;64.05;102113.11;1735019;82;20985;-59
2021/11/04 06:31:12;;;;;;;15.13;13.13;;;;;;;18.60;63.94;102098.47;1735210;82;21027;-58
2021/11/04 06:33:39;;;;;;;17.50;14.73;;;;;;;18.65;63.77;102092.56;1735555;82;21002;-58
2021/11/04 06:36:06;;;;;;;15.00;13.18;;;;;;;18.71;63.59;102104.70;1735302;82;21046;-54
2021/11/04 06:38:34;;;;;;;14.93;13.43;;;;;;;18.71;63.29;102109.97;1733592;81;21014;-57
2021/11/04 06:41:01;;;;;;;15.40;13.22;;;;;;;18.70;63.24;102106.91;1738342;82;21047;-53
2021/11/04 06:43:29;;;;;;;15.38;13.68;;;;;;;18.69;63.29;102115.75;1730609;82;21022;-57
2021/11/04 06:45:57;;;;;;;15.40;13.70;;;;;;;18.69;63.37;102109.16;1735568;82;21014;-59
2021/11/04 06:48:27;;;;;;;16.50;12.68;;;;;;;18.71;63.46;102115.25;1735401;82;21497;-57
2021/11/04 06:50:56;;;;;;;14.90;13.43;;;;;;;18.72;63.42;102121.36;1673465;85;21058;-56
2021/11/04 06:53:24;;;;;;;16.48;13.55;;;;;;;18.73;63.37;102116.05;1672650;85;21502;-56
2021/11/04 06:55:53;;;;;;;15.50;13.78;;;;;;;18.76;63.44;102121.20;1673252;85;21004;-57
2021/11/04 06:58:24;;;;;;;14.73;12.93;;;;;;;18.77;63.36;102117.67;1672584;85;21010;-58
2021/11/04 07:00:50;;;;;;;13.50;12.10;;;;;;;18.81;63.26;102120.61;1670729;85;21568;-55
2021/11/04 07:03:24;;;;;;;13.85;12.45;;;;;;;18.83;63.18;102120.09;1650309;85;21605;-52
2021/11/04 07:05:55;;;;;;;14.20;12.68;;;;;;;18.87;63.00;102126.98;1634887;87;21125;-57
2021/11/04 07:08:21;;;;;;;16.15;13.93;;;;;;;18.89;62.87;102126.48;1634541;87;21094;-51
2021/11/04 07:10:48;;;;;;;17.23;14.00;;;;;;;18.92;62.72;102132.11;1643583;87;21027;-52
2021/11/04 07:13:15;;;;;;;15.25;13.43;;;;;;;18.93;62.73;102128.09;1643727;87;21594;-51
2021/11/04 07:15:42;;;;;;;17.42;13.22;;;;;;;18.94;62.70;102130.28;1643622;87;21054;-59
2021/11/04 07:18:10;;;;;;;16.15;12.50;;;;;;;18.95;62.60;102138.14;1643921;87;20995;-56
2021/11/04 07:20:37;;;;;;;15.30;13.72;;;;;;;18.96;62.58;102131.09;1643507;87;21066;-57
2021/11/04 07:23:04;;;;;;;14.03;12.50;;;;;;;18.98;62.55;102130.09;1643621;87;21042;-55
2021/11/04 07:25:31;;;;;;;18.05;13.72;;;;;;;19.00;62.49;102124.31;1643574;87;21050;-52
2021/11/04 07:28:16;;;;;;;15.25;13.65;;;;;;;19.03;62.28;102120.26;1643651;87;21070;-53
2021/11/04 07:30:43;;;;;;;14.70;13.03;;;;;;;19.06;62.22;102122.77;1635129;87;21070;-53
2021/11/04 07:33:10;;;;;;;15.88;13.22;;;;;;;19.11;61.97;102125.25;1643712;87;20998;-53
2021/11/04 07:35:39;;;;;;;16.17;13.25;;;;;;;19.12;61.95;102130.50;1643879;87;21038;-54
2021/11/04 07:38:09;;;;;;;15.88;13.55;;;;;;;19.12;62.04;102129.19;1643646;87;21089;-56
2021/11/04 07:40:36;;;;;;;16.15;13.60;;;;;;;19.12;62.08;102137.09;1643699;87;21594;-54
2021/11/04 07:43:03;;;;;;;15.32;12.98;;;;;;;19.12;62.06;102122.59;1643697;87;21116;-57
2021/11/04 07:45:30;;;;;;;17.32;13.13;;;;;;;19.13;62.05;102115.51;1643782;87;21103;-53
2021/11/04 07:47:57;;;;;;;15.38;13.15;;;;;;;19.14;62.02;102119.44;1689929;83;21578;-54
2021/11/04 07:50:27;;;;;;;14.50;13.00;;;;;;;19.16;62.08;102120.69;1714881;83;21050;-57
2021/11/04 07:52:56;;;;;;;17.00;12.90;;;;;;;19.18;62.09;102122.37;1712810;83;21145;-53
2021/11/04 07:55:23;;;;;;;15.15;12.63;;;;;;;19.21;61.95;102118.28;1718801;83;21018;-54
2021/11/04 07:57:49;;;;;;;16.70;12.88;;;;;;;19.24;61.84;102123.92;1718530;83;21062;-51
2021/11/04 08:00:18;;;;;;;14.25;12.73;;;;;;;19.24;61.74;102120.83;1718653;83;21031;-51
2021/11/04 08:02:45;;;;;;;13.38;11.85;;;;;;;19.26;61.71;102117.67;1727422;82;21590;-54
2021/11/04 08:05:14;;;;;;;15.40;12.55;;;;;;;19.28;61.67;102121.12;1733969;82;21542;-55
2021/11/04 08:07:41;;;;;;;16.40;12.20;;;;;;;19.27;61.65;102116.73;1718914;82;21542;-52
2021/11/04 08:10:10;;;;;;;16.12;12.50;;;;;;;19.27;61.64;102112.78;1730526;82;21046;-55
2021/11/04 08:12:37;;;;;;;18.87;11.75;;;;;;;19.28;61.60;102123.76;1730520;82;21055;-52
2021/11/04 08:15:07;;;;;;;14.15;12.65;;;;;;;19.29;61.65;102122.83;1728577;82;21062;-54
2021/11/04 08:17:35;;;;;;;15.13;11.65;;;;;;;19.31;61.63;102125.40;1728222;82;21003;-54
2021/11/04 08:20:03;;;;;;;14.45;12.47;;;;;;;19.33;61.67;102122.28;1729408;82;21102;-55
2021/11/04 08:22:31;;;;;;;13.58;12.15;;;;;;;19.36;61.48;102123.05;1730373;82;21042;-52
2021/11/04 08:25:00;;;;;;;14.87;12.47;;;;;;;19.39;61.34;102125.56;1730263;82;21039;-54
2021/11/04 08:27:26;;;;;;;15.20;12.10;;;;;;;19.39;61.30;102124.24;1729775;82;21043;-51
2021/11/04 08:29:53;;;;;;;13.50;12.10;;;;;;;19.42;61.23;102120.63;1727505;82;20999;-54
2021/11/04 08:32:21;;;;;;;14.63;12.33;;;;;;;19.43;61.04;102111.81;1727438;82;21003;-54
2021/11/04 08:34:48;;;;;;;15.03;11.22;;;;;;;19.54;60.84;102119.34;1722554;82;21023;-57
2021/11/04 08:37:14;;;;;;;18.23;11.80;;;;;;;19.59;60.77;102120.88;1728023;82;21023;-56
2021/11/04 08:39:41;;;;;;;13.65;11.33;;;;;;;19.62;60.63;102120.75;1728952;82;21070;-54
2021/11/04 08:42:08;;;;;;;13.90;10.98;;;;;;;19.66;60.45;102113.59;1729908;82;21019;-55
2021/11/04 08:44:35;;;;;;;18.57;11.57;;;;;;;19.70;60.36;102116.04;1729962;82;20995;-54
2021/11/04 08:47:03;;;;;;;14.68;11.55;;;;;;;19.72;60.25;102116.84;1722211;82;21098;-56
2021/11/04 08:49:30;;;;;;;12.53;11.00;;;;;;;19.75;60.12;102117.19;1727511;82;21066;-57
2021/11/04 08:51:57;;;;;;;15.78;11.85;;;;;;;19.77;60.05;102103.47;1727776;82;21007;-51
2021/11/04 08:54:24;;;;;;;13.93;11.12;;;;;;;19.80;59.98;102104.23;1724048;82;21071;-54
2021/11/04 08:56:51;;;;;;;12.10;10.58;;;;;;;19.82;59.98;102102.84;1730644;82;21510;-55
2021/11/04 08:59:19;;;;;;;14.60;11.60;;;;;;;19.86;60.09;102096.52;1728812;82;21721;-51
2021/11/04 09:01:45;;;;;;;12.15;10.65;;;;;;;19.88;60.02;102094.22;1727489;82;21014;-50
2021/11/04 09:04:12;;;;;;;15.15;11.57;;;;;;;19.89;59.88;102092.42;1717724;82;21026;-51
2021/11/04 09:06:39;;;;;;;11.93;10.08;;;;;;;19.91;59.94;102091.90;1729681;82;21007;-54
2021/11/04 09:09:07;;;;;;;11.68;10.43;;;;;;;19.92;60.03;102089.67;1730703;82;20999;-54
2021/11/04 09:11:33;;;;;;;11.70;10.25;;;;;;;19.96;59.99;102089.95;1729665;82;21805;-50
2021/11/04 09:14:00;;;;;;;11.48;10.23;;;;;;;19.98;59.99;102086.34;1726589;82;21015;-54
2021/11/04 09:16:29;;;;;;;14.73;10.48;;;;;;;19.97;60.04;102089.05;1717513;82;21534;-54
2021/11/04 09:18:56;;;;;;;14.73;10.75;;;;;;;20.00;60.07;102085.81;1726349;82;21495;-57
2021/11/04 09:21:24;;;;;;;13.30;10.70;;;;;;;20.03;60.02;102079.55;1720989;82;21042;-54
2021/11/04 09:23:51;;;;;;;12.40;10.40;;;;;;;20.07;59.86;102078.51;1727355;82;21049;-51
2021/11/04 09:26:17;;;;;;;14.68;10.78;;;;;;;20.08;59.91;102070.52;1729245;82;21030;-51
2021/11/04 09:28:44;;;;;;;14.47;10.88;;;;;;;20.13;59.82;102065.88;1730354;82;21011;-52
2021/11/04 09:31:11;;;;;;;15.00;10.72;;;;;;;20.18;59.66;102065.25;1726459;82;21117;-51
2021/11/04 09:33:38;;;;;;;13.80;10.65;;;;;;;20.24;59.50;102060.20;1725069;82;20999;-50
2021/11/04 09:36:04;;;;;;;11.10;9.90;;;;;;;20.29;59.31;102056.92;1727730;82;21519;-50
2021/11/04 09:38:31;;;;;;;13.40;10.05;;;;;;;20.34;59.08;102056.24;1727217;82;21046;-54
2021/11/04 09:40:57;;;;;;;11.50;9.45;;;;;;;20.40;58.96;102059.12;1727660;82;21066;-55
2021/11/04 09:43:24;;;;;;;16.87;9.73;;;;;;;20.46;58.83;102059.73;1730700;82;20955;-55
2021/11/04 09:45:50;;;;;;;11.18;9.40;;;;;;;20.52;58.65;102051.53;1726095;82;21086;-52
2021/11/04 09:48:17;;;;;;;12.35;9.30;;;;;;;20.57;58.41;102048.22;1730667;82;21026;-53
2021/11/04 09:50:44;;;;;;;13.55;9.43;;;;;;;20.60;58.20;102045.45;1727925;82;21067;-50
2021/11/04 09:53:11;;;;;;;12.03;9.68;;;;;;;20.64;58.11;102046.17;1727428;82;20998;-51
2021/11/04 09:55:37;;;;;;;15.15;9.48;;;;;;;20.59;58.00;102037.11;1727561;82;20998;-57
2021/11/04 09:58:04;;;;;;;13.32;10.25;;;;;;;20.43;58.33;102037.82;1727848;82;21086;-53
2021/11/04 10:00:40;;;;;;;15.58;10.23;;;;;;;20.40;58.18;102033.55;1723638;82;21047;-57
2021/11/04 10:03:13;;;;;;;14.30;9.43;;;;;;;20.38;58.10;102034.05;1729005;82;21550;-54
2021/11/04 10:05:44;;;;;;;12.25;8.90;;;;;;;20.37;58.04;102036.30;1735332;81;21007;-53
2021/11/04 10:08:15;;;;;;;8.25;7.00;;;;;;;20.38;57.90;102037.17;1735308;81;21539;-52
2021/11/04 10:10:43;;;;;;;10.48;7.75;;;;;;;20.38;57.88;102043.30;1670579;84;21594;-55
2021/11/04 10:13:11;;;;;;;10.78;6.85;;;;;;;20.40;57.74;102041.94;1672782;85;21015;-54
2021/11/04 10:15:40;;;;;;;7.35;6.33;;;;;;;20.43;57.63;102040.47;1667583;85;20991;-51
2021/11/04 10:18:14;;;;;;;12.23;7.87;;;;;;;20.45;57.61;102040.80;1657583;85;21026;-49
2021/11/04 10:20:44;;;;;;;8.23;6.55;;;;;;;20.47;57.55;102048.66;1669503;85;21038;-52
2021/11/04 10:23:12;;;;;;;9.85;5.87;;;;;;;20.48;57.46;102042.47;1673031;85;21072;-51
2021/11/04 10:25:41;;;;;;;9.73;6.20;;;;;;;20.50;57.45;102052.06;1665382;85;21109;-55
2021/11/04 10:28:27;;;;;;;7.80;5.22;;;;;;;20.53;57.54;102053.23;1670945;85;21034;-53
2021/11/04 10:30:55;;;;;;;7.90;5.15;;;;;;;20.58;57.39;102055.23;1624948;88;21083;-54
2021/11/04 10:33:28;;;;;;;7.50;4.70;;;;;;;20.62;57.25;102054.64;1618833;88;21083;-50
2021/11/04 10:36:00;;;;;;;8.08;5.10;;;;;;;20.63;57.02;102043.98;1617890;88;21087;-51
2021/11/04 10:38:44;;;;;;;11.83;5.05;;;;;;;20.65;57.05;102047.42;1605804;88;21019;-56
2021/11/04 10:41:30;;;;;;;10.30;5.40;;;;;;;20.66;57.03;102042.54;1617080;88;21153;-54
2021/11/04 10:44:10;;;;;;;7.75;5.03;;;;;;;20.67;56.85;102042.92;1618467;88;21023;-53
2021/11/04 10:46:42;;;;;;;8.10;5.65;;;;;;;20.66;56.80;102038.58;1618189;88;21035;-54
2021/11/04 10:49:09;;;;;;;11.78;6.10;;;;;;;20.64;56.84;102033.81;1616624;88;21204;-52
2021/11/04 10:51:37;;;;;;;8.60;5.95;;;;;;;20.62;56.96;102025.09;1616827;88;21067;-52
2021/11/04 10:54:14;;;;;;;11.30;6.78;;;;;;;20.60;57.02;102021.65;1619015;88;21022;-50
2021/11/04 10:56:43;;;;;;;8.28;6.12;;;;;;;20.58;57.08;102019.53;1618490;88;21099;-53
2021/11/04 10:59:13;;;;;;;10.38;6.87;;;;;;;20.55;57.08;102011.72;1618359;88;21086;-51
2021/11/04 11:01:49;;;;;;;14.20;7.03;;;;;;;20.50;57.17;102024.30;1584812;90;21055;-54
2021/11/04 11:04:24;;;;;;;11.50;7.37;;;;;;;20.48;57.34;102026.60;1616694;88;21133;-54
2021/11/04 11:06:53;;;;;;;13.30;7.40;;;;;;;20.43;57.49;102017.99;1560638;89;21600;-53
2021/11/04 11:09:25;;;;;;;9.83;7.55;;;;;;;20.38;57.53;101999.67;1601483;89;21084;-52
2021/11/04 11:11:54;;;;;;;12.43;8.33;;;;;;;20.34;57.72;101981.39;1601556;89;21081;-51
2021/11/04 11:14:26;;;;;;;14.40;10.20;;;;;;;20.29;57.96;101971.01;1602249;89;21595;-55
2021/11/04 11:16:57;;;;;;;11.85;8.78;;;;;;;20.23;58.11;101968.63;1597827;89;21105;-52